sensor_id;sensor_type;location;lat;lon;timestamp;P1;durP1;ratioP1;P2;durP2;ratioP2
23866;SDS011;12114;53.404;-1.502;2023-07-31T00:00:05;0.50;;;0.40;;
23866;SDS011;12114;53.404;-1.502;2023-07-31T00:02:50;1.63;;;0.50;;
23866;SDS011;12114;53.404;-1.502;2023-07-31T00:05:34;1.45;;;0.50;;
23866;SDS011;12114;53.404;-1.502;2023-07-31T00:08:18;1.23;;;0.60;;
23866;SDS011;12114;53.404;-1.502;2023-07-31T00:11:02;4.00;;;0.90;;
23866;SDS011;12114;53.404;-1.502;2023-07-31T00:13:46;1.73;;;0.70;;
23866;SDS011;12114;53.404;-1.502;2023-07-31T00:16:30;3.45;;;0.90;;
23866;SDS011;12114;53.404;-1.502;2023-07-31T00:19:14;2.90;;;1.00;;
23866;SDS011;12114;53.404;-1.502;2023-07-31T00:21:57;4.25;;;1.00;;
23866;SDS011;12114;53.404;-1.502;2023-07-31T00:24:42;3.47;;;1.27;;
23866;SDS011;12114;53.404;-1.502;2023-07-31T00:27:26;2.45;;;1.02;;
23866;SDS011;12114;53.404;-1.502;2023-07-31T00:30:10;2.22;;;0.90;;
23866;SDS011;12114;53.404;-1.502;2023-07-31T00:32:54;4.18;;;1.20;;
23866;SDS011;12114;53.404;-1.502;2023-07-31T00:35:38;1.40;;;0.75;;
23866;SDS011;12114;53.404;-1.502;2023-07-31T00:38:22;1.30;;;0.70;;
23866;SDS011;12114;53.404;-1.502;2023-07-31T00:41:06;1.10;;;0.68;;
23866;SDS011;12114;53.404;-1.502;2023-07-31T00:43:50;1.33;;;0.63;;
23866;SDS011;12114;53.404;-1.502;2023-07-31T00:46:34;2.25;;;0.70;;
23866;SDS011;12114;53.404;-1.502;2023-07-31T00:49:18;1.33;;;0.63;;
23866;SDS011;12114;53.404;-1.502;2023-07-31T00:52:02;4.05;;;0.80;;
23866;SDS011;12114;53.404;-1.502;2023-07-31T00:54:46;1.92;;;0.70;;
23866;SDS011;12114;53.404;-1.502;2023-07-31T00:57:31;3.38;;;0.70;;
23866;SDS011;12114;53.404;-1.502;2023-07-31T01:00:15;1.60;;;0.60;;
23866;SDS011;12114;53.404;-1.502;2023-07-31T01:02:59;1.25;;;0.60;;
23866;SDS011;12114;53.404;-1.502;2023-07-31T01:11:30;1.15;;;0.47;;
23866;SDS011;12114;53.404;-1.502;2023-07-31T01:14:15;1.50;;;0.50;;
23866;SDS011;12114;53.404;-1.502;2023-07-31T01:16:59;1.40;;;0.43;;
23866;SDS011;12114;53.404;-1.502;2023-07-31T01:19:42;1.10;;;0.43;;
23866;SDS011;12114;53.404;-1.502;2023-07-31T01:28:20;1.45;;;0.60;;
23866;SDS011;12114;53.404;-1.502;2023-07-31T01:31:07;1.20;;;0.50;;
23866;SDS011;12114;53.404;-1.502;2023-07-31T01:33:53;1.08;;;0.43;;
23866;SDS011;12114;53.404;-1.502;2023-07-31T01:36:37;0.73;;;0.40;;
23866;SDS011;12114;53.404;-1.502;2023-07-31T01:39:21;3.65;;;0.60;;
23866;SDS011;12114;53.404;-1.502;2023-07-31T01:42:05;0.90;;;0.50;;
23866;SDS011;12114;53.404;-1.502;2023-07-31T01:44:49;0.70;;;0.40;;
23866;SDS011;12114;53.404;-1.502;2023-07-31T01:47:33;0.85;;;0.55;;
23866;SDS011;12114;53.404;-1.502;2023-07-31T01:50:18;0.88;;;0.50;;
23866;SDS011;12114;53.404;-1.502;2023-07-31T01:53:02;1.50;;;0.50;;
23866;SDS011;12114;53.404;-1.502;2023-07-31T01:55:46;2.45;;;0.50;;
23866;SDS011;12114;53.404;-1.502;2023-07-31T01:58:30;0.75;;;0.22;;
23866;SDS011;12114;53.404;-1.502;2023-07-31T02:01:14;0.80;;;0.40;;
23866;SDS011;12114;53.404;-1.502;2023-07-31T02:03:57;1.95;;;0.40;;
23866;SDS011;12114;53.404;-1.502;2023-07-31T02:06:41;1.02;;;0.28;;
23866;SDS011;12114;53.404;-1.502;2023-07-31T02:09:25;2.55;;;0.30;;
23866;SDS011;12114;53.404;-1.502;2023-07-31T02:12:10;0.98;;;0.40;;
23866;SDS011;12114;53.404;-1.502;2023-07-31T02:14:54;1.40;;;0.47;;
23866;SDS011;12114;53.404;-1.502;2023-07-31T02:17:38;1.15;;;0.60;;
23866;SDS011;12114;53.404;-1.502;2023-07-31T02:20:22;0.95;;;0.45;;
23866;SDS011;12114;53.404;-1.502;2023-07-31T02:23:06;0.47;;;0.40;;
23866;SDS011;12114;53.404;-1.502;2023-07-31T02:25:50;0.95;;;0.40;;
23866;SDS011;12114;53.404;-1.502;2023-07-31T02:28:34;1.67;;;0.60;;
23866;SDS011;12114;53.404;-1.502;2023-07-31T02:31:18;2.00;;;0.40;;
23866;SDS011;12114;53.404;-1.502;2023-07-31T02:34:02;0.77;;;0.47;;
23866;SDS011;12114;53.404;-1.502;2023-07-31T02:36:46;0.60;;;0.40;;
23866;SDS011;12114;53.404;-1.502;2023-07-31T02:39:30;0.90;;;0.60;;
23866;SDS011;12114;53.404;-1.502;2023-07-31T02:42:14;1.42;;;0.50;;
23866;SDS011;12114;53.404;-1.502;2023-07-31T02:44:58;1.23;;;0.40;;
23866;SDS011;12114;53.404;-1.502;2023-07-31T02:47:42;0.90;;;0.52;;
23866;SDS011;12114;53.404;-1.502;2023-07-31T02:50:27;2.15;;;0.50;;
23866;SDS011;12114;53.404;-1.502;2023-07-31T02:53:13;1.15;;;0.57;;
23866;SDS011;12114;53.404;-1.502;2023-07-31T02:55:57;5.00;;;0.50;;
23866;SDS011;12114;53.404;-1.502;2023-07-31T02:58:41;1.17;;;0.70;;
23866;SDS011;12114;53.404;-1.502;2023-07-31T03:01:25;1.38;;;0.60;;
23866;SDS011;12114;53.404;-1.502;2023-07-31T03:04:09;0.70;;;0.60;;
23866;SDS011;12114;53.404;-1.502;2023-07-31T03:06:53;1.33;;;0.50;;
23866;SDS011;12114;53.404;-1.502;2023-07-31T03:09:37;0.98;;;0.50;;
23866;SDS011;12114;53.404;-1.502;2023-07-31T03:12:21;1.58;;;0.77;;
23866;SDS011;12114;53.404;-1.502;2023-07-31T03:15:05;1.13;;;0.70;;
23866;SDS011;12114;53.404;-1.502;2023-07-31T03:17:49;1.65;;;0.90;;
23866;SDS011;12114;53.404;-1.502;2023-07-31T03:20:36;1.27;;;1.05;;
23866;SDS011;12114;53.404;-1.502;2023-07-31T03:23:20;1.65;;;1.40;;
23866;SDS011;12114;53.404;-1.502;2023-07-31T03:26:05;1.23;;;1.00;;
23866;SDS011;12114;53.404;-1.502;2023-07-31T03:28:49;1.70;;;1.23;;
23866;SDS011;12114;53.404;-1.502;2023-07-31T03:31:33;1.20;;;1.10;;
23866;SDS011;12114;53.404;-1.502;2023-07-31T03:34:17;1.58;;;1.20;;
23866;SDS011;12114;53.404;-1.502;2023-07-31T03:37:01;1.50;;;1.27;;
23866;SDS011;12114;53.404;-1.502;2023-07-31T03:39:45;1.60;;;1.45;;
23866;SDS011;12114;53.404;-1.502;2023-07-31T03:42:29;2.45;;;1.60;;
23866;SDS011;12114;53.404;-1.502;2023-07-31T03:45:13;2.22;;;1.70;;
23866;SDS011;12114;53.404;-1.502;2023-07-31T03:47:58;1.90;;;1.42;;
23866;SDS011;12114;53.404;-1.502;2023-07-31T03:50:42;2.22;;;1.90;;
23866;SDS011;12114;53.404;-1.502;2023-07-31T03:53:26;2.30;;;1.85;;
23866;SDS011;12114;53.404;-1.502;2023-07-31T03:56:10;4.57;;;2.17;;
23866;SDS011;12114;53.404;-1.502;2023-07-31T03:58:54;2.67;;;2.35;;
23866;SDS011;12114;53.404;-1.502;2023-07-31T04:01:38;3.03;;;2.28;;
23866;SDS011;12114;53.404;-1.502;2023-07-31T04:04:22;3.10;;;2.42;;
23866;SDS011;12114;53.404;-1.502;2023-07-31T04:07:06;2.80;;;2.03;;
23866;SDS011;12114;53.404;-1.502;2023-07-31T04:09:50;2.35;;;1.85;;
23866;SDS011;12114;53.404;-1.502;2023-07-31T04:12:34;3.13;;;1.88;;
23866;SDS011;12114;53.404;-1.502;2023-07-31T04:15:18;2.70;;;2.00;;
23866;SDS011;12114;53.404;-1.502;2023-07-31T04:18:02;3.35;;;2.70;;
23866;SDS011;12114;53.404;-1.502;2023-07-31T04:20:46;4.03;;;2.53;;
23866;SDS011;12114;53.404;-1.502;2023-07-31T04:23:30;3.65;;;2.40;;
23866;SDS011;12114;53.404;-1.502;2023-07-31T04:26:14;4.30;;;3.13;;
23866;SDS011;12114;53.404;-1.502;2023-07-31T04:28:58;3.95;;;3.20;;
23866;SDS011;12114;53.404;-1.502;2023-07-31T04:31:42;4.22;;;3.30;;
23866;SDS011;12114;53.404;-1.502;2023-07-31T04:34:26;4.95;;;3.40;;
23866;SDS011;12114;53.404;-1.502;2023-07-31T04:37:10;4.32;;;3.28;;
23866;SDS011;12114;53.404;-1.502;2023-07-31T04:39:54;5.40;;;3.10;;
23866;SDS011;12114;53.404;-1.502;2023-07-31T04:42:38;4.93;;;2.42;;
23866;SDS011;12114;53.404;-1.502;2023-07-31T04:45:22;2.97;;;1.75;;
23866;SDS011;12114;53.404;-1.502;2023-07-31T04:48:06;2.20;;;1.40;;
23866;SDS011;12114;53.404;-1.502;2023-07-31T04:50:50;1.58;;;1.10;;
23866;SDS011;12114;53.404;-1.502;2023-07-31T04:53:34;5.30;;;1.20;;
23866;SDS011;12114;53.404;-1.502;2023-07-31T04:56:18;4.18;;;1.23;;
23866;SDS011;12114;53.404;-1.502;2023-07-31T04:59:01;4.00;;;1.10;;
23866;SDS011;12114;53.404;-1.502;2023-07-31T05:01:45;1.58;;;1.10;;
23866;SDS011;12114;53.404;-1.502;2023-07-31T05:04:29;3.25;;;1.00;;
23866;SDS011;12114;53.404;-1.502;2023-07-31T05:07:13;3.05;;;1.15;;
23866;SDS011;12114;53.404;-1.502;2023-07-31T05:09:57;3.17;;;1.40;;
23866;SDS011;12114;53.404;-1.502;2023-07-31T05:12:41;3.72;;;1.02;;
23866;SDS011;12114;53.404;-1.502;2023-07-31T05:15:25;2.30;;;0.98;;
23866;SDS011;12114;53.404;-1.502;2023-07-31T05:18:09;1.88;;;0.70;;
23866;SDS011;12114;53.404;-1.502;2023-07-31T05:20:53;2.50;;;0.68;;
23866;SDS011;12114;53.404;-1.502;2023-07-31T05:23:37;2.85;;;0.90;;
23866;SDS011;12114;53.404;-1.502;2023-07-31T05:26:21;3.00;;;1.20;;
23866;SDS011;12114;53.404;-1.502;2023-07-31T05:29:05;1.20;;;0.75;;
23866;SDS011;12114;53.404;-1.502;2023-07-31T05:31:49;3.70;;;1.20;;
23866;SDS011;12114;53.404;-1.502;2023-07-31T05:34:33;4.00;;;1.88;;
23866;SDS011;12114;53.404;-1.502;2023-07-31T05:37:17;3.42;;;1.88;;
23866;SDS011;12114;53.404;-1.502;2023-07-31T05:40:01;3.05;;;1.73;;
23866;SDS011;12114;53.404;-1.502;2023-07-31T05:42:44;6.13;;;2.53;;
23866;SDS011;12114;53.404;-1.502;2023-07-31T05:45:28;6.25;;;4.22;;
23866;SDS011;12114;53.404;-1.502;2023-07-31T05:48:12;5.90;;;3.97;;
23866;SDS011;12114;53.404;-1.502;2023-07-31T05:50:56;5.68;;;4.30;;
23866;SDS011;12114;53.404;-1.502;2023-07-31T05:53:40;4.97;;;4.47;;
23866;SDS011;12114;53.404;-1.502;2023-07-31T05:56:24;5.57;;;4.97;;
23866;SDS011;12114;53.404;-1.502;2023-07-31T05:59:08;6.13;;;4.40;;
23866;SDS011;12114;53.404;-1.502;2023-07-31T06:01:52;5.78;;;3.50;;
23866;SDS011;12114;53.404;-1.502;2023-07-31T06:04:36;4.70;;;2.85;;
23866;SDS011;12114;53.404;-1.502;2023-07-31T06:07:20;6.53;;;4.85;;
23866;SDS011;12114;53.404;-1.502;2023-07-31T06:10:04;6.60;;;4.90;;
23866;SDS011;12114;53.404;-1.502;2023-07-31T06:12:49;7.03;;;4.63;;
23866;SDS011;12114;53.404;-1.502;2023-07-31T06:15:33;5.95;;;4.30;;
23866;SDS011;12114;53.404;-1.502;2023-07-31T06:18:17;5.53;;;3.97;;
23866;SDS011;12114;53.404;-1.502;2023-07-31T06:21:01;8.27;;;5.10;;
23866;SDS011;12114;53.404;-1.502;2023-07-31T06:23:45;6.03;;;4.22;;
23866;SDS011;12114;53.404;-1.502;2023-07-31T06:26:29;4.18;;;3.33;;
23866;SDS011;12114;53.404;-1.502;2023-07-31T06:29:13;4.53;;;2.83;;
23866;SDS011;12114;53.404;-1.502;2023-07-31T06:31:57;3.78;;;3.00;;
23866;SDS011;12114;53.404;-1.502;2023-07-31T06:34:41;4.13;;;2.22;;
23866;SDS011;12114;53.404;-1.502;2023-07-31T06:37:25;4.63;;;2.47;;
23866;SDS011;12114;53.404;-1.502;2023-07-31T06:40:09;3.78;;;1.98;;
23866;SDS011;12114;53.404;-1.502;2023-07-31T06:42:53;4.82;;;2.10;;
23866;SDS011;12114;53.404;-1.502;2023-07-31T06:45:37;6.20;;;2.28;;
23866;SDS011;12114;53.404;-1.502;2023-07-31T06:48:21;5.00;;;2.42;;
23866;SDS011;12114;53.404;-1.502;2023-07-31T06:51:05;5.03;;;2.42;;
23866;SDS011;12114;53.404;-1.502;2023-07-31T06:53:49;6.90;;;2.60;;
23866;SDS011;12114;53.404;-1.502;2023-07-31T06:56:33;5.57;;;2.55;;
23866;SDS011;12114;53.404;-1.502;2023-07-31T06:59:17;7.40;;;3.00;;
23866;SDS011;12114;53.404;-1.502;2023-07-31T07:02:01;7.97;;;3.20;;
23866;SDS011;12114;53.404;-1.502;2023-07-31T07:04:45;4.43;;;2.80;;
23866;SDS011;12114;53.404;-1.502;2023-07-31T07:07:29;8.25;;;2.72;;
23866;SDS011;12114;53.404;-1.502;2023-07-31T07:10:13;8.75;;;3.08;;
23866;SDS011;12114;53.404;-1.502;2023-07-31T07:12:57;6.22;;;2.65;;
23866;SDS011;12114;53.404;-1.502;2023-07-31T07:15:41;6.20;;;2.90;;
23866;SDS011;12114;53.404;-1.502;2023-07-31T07:18:25;5.57;;;3.50;;
23866;SDS011;12114;53.404;-1.502;2023-07-31T07:21:09;9.18;;;3.45;;
23866;SDS011;12114;53.404;-1.502;2023-07-31T07:23:53;8.02;;;3.55;;
23866;SDS011;12114;53.404;-1.502;2023-07-31T07:26:37;9.77;;;3.90;;
23866;SDS011;12114;53.404;-1.502;2023-07-31T07:29:21;6.35;;;3.70;;
23866;SDS011;12114;53.404;-1.502;2023-07-31T07:32:05;8.27;;;3.42;;
23866;SDS011;12114;53.404;-1.502;2023-07-31T07:34:49;7.90;;;3.47;;
23866;SDS011;12114;53.404;-1.502;2023-07-31T07:37:33;8.57;;;3.58;;
23866;SDS011;12114;53.404;-1.502;2023-07-31T07:40:17;6.50;;;2.83;;
23866;SDS011;12114;53.404;-1.502;2023-07-31T07:43:01;7.72;;;3.03;;
23866;SDS011;12114;53.404;-1.502;2023-07-31T07:45:45;8.00;;;2.97;;
23866;SDS011;12114;53.404;-1.502;2023-07-31T07:48:29;6.55;;;2.78;;
23866;SDS011;12114;53.404;-1.502;2023-07-31T07:51:13;6.30;;;2.97;;
23866;SDS011;12114;53.404;-1.502;2023-07-31T07:53:57;4.95;;;2.80;;
23866;SDS011;12114;53.404;-1.502;2023-07-31T07:56:41;8.75;;;3.30;;
23866;SDS011;12114;53.404;-1.502;2023-07-31T07:59:25;8.48;;;4.35;;
23866;SDS011;12114;53.404;-1.502;2023-07-31T08:02:09;8.57;;;4.55;;
23866;SDS011;12114;53.404;-1.502;2023-07-31T08:04:53;12.10;;;4.75;;
23866;SDS011;12114;53.404;-1.502;2023-07-31T08:07:37;7.97;;;4.25;;
23866;SDS011;12114;53.404;-1.502;2023-07-31T08:10:21;8.38;;;4.07;;
23866;SDS011;12114;53.404;-1.502;2023-07-31T08:13:05;9.07;;;3.70;;
23866;SDS011;12114;53.404;-1.502;2023-07-31T08:15:49;6.78;;;2.95;;
23866;SDS011;12114;53.404;-1.502;2023-07-31T08:18:33;8.35;;;3.03;;
23866;SDS011;12114;53.404;-1.502;2023-07-31T08:21:17;14.93;;;3.72;;
23866;SDS011;12114;53.404;-1.502;2023-07-31T08:24:01;4.78;;;2.45;;
23866;SDS011;12114;53.404;-1.502;2023-07-31T08:26:45;7.03;;;2.42;;
23866;SDS011;12114;53.404;-1.502;2023-07-31T08:29:29;8.63;;;2.78;;
23866;SDS011;12114;53.404;-1.502;2023-07-31T08:32:13;8.13;;;3.00;;
23866;SDS011;12114;53.404;-1.502;2023-07-31T08:34:57;7.53;;;3.70;;
23866;SDS011;12114;53.404;-1.502;2023-07-31T08:37:41;6.53;;;3.92;;
23866;SDS011;12114;53.404;-1.502;2023-07-31T08:40:25;13.40;;;6.03;;
23866;SDS011;12114;53.404;-1.502;2023-07-31T08:43:10;7.93;;;5.60;;
23866;SDS011;12114;53.404;-1.502;2023-07-31T08:45:54;9.77;;;6.10;;
23866;SDS011;12114;53.404;-1.502;2023-07-31T08:48:38;9.98;;;5.38;;
23866;SDS011;12114;53.404;-1.502;2023-07-31T08:51:23;8.15;;;4.32;;
23866;SDS011;12114;53.404;-1.502;2023-07-31T08:54:07;8.57;;;4.30;;
23866;SDS011;12114;53.404;-1.502;2023-07-31T08:56:51;8.80;;;4.13;;
23866;SDS011;12114;53.404;-1.502;2023-07-31T08:59:36;7.45;;;3.67;;
23866;SDS011;12114;53.404;-1.502;2023-07-31T09:02:21;9.52;;;4.97;;
23866;SDS011;12114;53.404;-1.502;2023-07-31T09:05:06;10.73;;;5.13;;
23866;SDS011;12114;53.404;-1.502;2023-07-31T09:07:51;9.80;;;4.80;;
23866;SDS011;12114;53.404;-1.502;2023-07-31T09:10:35;12.68;;;5.45;;
23866;SDS011;12114;53.404;-1.502;2023-07-31T09:13:19;9.88;;;4.95;;
23866;SDS011;12114;53.404;-1.502;2023-07-31T09:16:03;10.05;;;5.40;;
23866;SDS011;12114;53.404;-1.502;2023-07-31T09:18:53;9.10;;;4.85;;
23866;SDS011;12114;53.404;-1.502;2023-07-31T09:21:47;8.73;;;4.07;;
23866;SDS011;12114;53.404;-1.502;2023-07-31T09:24:33;9.20;;;3.90;;
23866;SDS011;12114;53.404;-1.502;2023-07-31T09:27:17;10.95;;;4.20;;
23866;SDS011;12114;53.404;-1.502;2023-07-31T09:30:01;11.43;;;4.10;;
23866;SDS011;12114;53.404;-1.502;2023-07-31T09:32:45;8.52;;;3.80;;
23866;SDS011;12114;53.404;-1.502;2023-07-31T09:35:30;9.85;;;3.78;;
23866;SDS011;12114;53.404;-1.502;2023-07-31T09:38:14;8.43;;;3.33;;
23866;SDS011;12114;53.404;-1.502;2023-07-31T09:40:58;10.48;;;4.47;;
23866;SDS011;12114;53.404;-1.502;2023-07-31T09:43:44;9.70;;;4.18;;
23866;SDS011;12114;53.404;-1.502;2023-07-31T09:46:36;8.85;;;3.63;;
23866;SDS011;12114;53.404;-1.502;2023-07-31T09:49:21;9.00;;;4.10;;
23866;SDS011;12114;53.404;-1.502;2023-07-31T09:52:11;7.40;;;4.00;;
23866;SDS011;12114;53.404;-1.502;2023-07-31T09:54:55;8.45;;;4.30;;
23866;SDS011;12114;53.404;-1.502;2023-07-31T09:57:40;9.23;;;3.78;;
23866;SDS011;12114;53.404;-1.502;2023-07-31T10:00:25;8.02;;;3.67;;
23866;SDS011;12114;53.404;-1.502;2023-07-31T10:03:12;7.40;;;4.40;;
23866;SDS011;12114;53.404;-1.502;2023-07-31T10:05:56;8.77;;;4.00;;
23866;SDS011;12114;53.404;-1.502;2023-07-31T10:08:40;6.25;;;4.10;;
23866;SDS011;12114;53.404;-1.502;2023-07-31T10:11:24;7.68;;;4.30;;
23866;SDS011;12114;53.404;-1.502;2023-07-31T10:14:10;6.50;;;4.00;;
23866;SDS011;12114;53.404;-1.502;2023-07-31T10:16:54;8.45;;;3.83;;
23866;SDS011;12114;53.404;-1.502;2023-07-31T10:19:38;7.47;;;3.35;;
23866;SDS011;12114;53.404;-1.502;2023-07-31T10:22:23;7.45;;;3.80;;
23866;SDS011;12114;53.404;-1.502;2023-07-31T10:25:07;6.30;;;3.08;;
23866;SDS011;12114;53.404;-1.502;2023-07-31T10:27:51;8.00;;;2.40;;
23866;SDS011;12114;53.404;-1.502;2023-07-31T10:30:36;5.68;;;2.65;;
23866;SDS011;12114;53.404;-1.502;2023-07-31T10:33:21;4.60;;;2.10;;
23866;SDS011;12114;53.404;-1.502;2023-07-31T10:36:12;6.53;;;2.20;;
23866;SDS011;12114;53.404;-1.502;2023-07-31T10:38:56;5.13;;;2.08;;
23866;SDS011;12114;53.404;-1.502;2023-07-31T10:41:40;6.18;;;1.88;;
23866;SDS011;12114;53.404;-1.502;2023-07-31T10:44:24;6.30;;;2.00;;
23866;SDS011;12114;53.404;-1.502;2023-07-31T10:47:08;4.07;;;1.38;;
23866;SDS011;12114;53.404;-1.502;2023-07-31T10:49:52;4.13;;;1.85;;
23866;SDS011;12114;53.404;-1.502;2023-07-31T10:52:36;4.95;;;2.15;;
23866;SDS011;12114;53.404;-1.502;2023-07-31T10:58:08;12.18;;;5.88;;
23866;SDS011;12114;53.404;-1.502;2023-07-31T11:01:00;6.35;;;2.75;;
23866;SDS011;12114;53.404;-1.502;2023-07-31T11:03:45;8.95;;;3.80;;
23866;SDS011;12114;53.404;-1.502;2023-07-31T11:06:29;6.75;;;3.65;;
23866;SDS011;12114;53.404;-1.502;2023-07-31T11:09:13;5.60;;;3.42;;
23866;SDS011;12114;53.404;-1.502;2023-07-31T11:11:58;6.45;;;3.42;;
23866;SDS011;12114;53.404;-1.502;2023-07-31T11:14:42;9.23;;;3.47;;
23866;SDS011;12114;53.404;-1.502;2023-07-31T11:17:26;5.50;;;3.38;;
23866;SDS011;12114;53.404;-1.502;2023-07-31T11:20:10;7.20;;;3.53;;
23866;SDS011;12114;53.404;-1.502;2023-07-31T11:22:54;7.00;;;3.13;;
23866;SDS011;12114;53.404;-1.502;2023-07-31T11:25:38;6.68;;;2.83;;
23866;SDS011;12114;53.404;-1.502;2023-07-31T11:28:25;7.78;;;2.70;;
23866;SDS011;12114;53.404;-1.502;2023-07-31T11:31:09;5.47;;;2.40;;
23866;SDS011;12114;53.404;-1.502;2023-07-31T11:34:05;5.57;;;2.10;;
23866;SDS011;12114;53.404;-1.502;2023-07-31T11:39:34;4.95;;;1.67;;
23866;SDS011;12114;53.404;-1.502;2023-07-31T11:42:18;6.30;;;2.30;;
23866;SDS011;12114;53.404;-1.502;2023-07-31T11:45:03;3.47;;;1.60;;
23866;SDS011;12114;53.404;-1.502;2023-07-31T11:47:47;6.95;;;2.20;;
23866;SDS011;12114;53.404;-1.502;2023-07-31T11:50:32;4.65;;;2.13;;
23866;SDS011;12114;53.404;-1.502;2023-07-31T11:53:18;8.10;;;2.50;;
23866;SDS011;12114;53.404;-1.502;2023-07-31T11:56:02;8.18;;;2.25;;
23866;SDS011;12114;53.404;-1.502;2023-07-31T11:58:49;7.75;;;2.67;;
23866;SDS011;12114;53.404;-1.502;2023-07-31T12:01:32;8.20;;;2.43;;
23866;SDS011;12114;53.404;-1.502;2023-07-31T12:04:17;9.45;;;2.65;;
23866;SDS011;12114;53.404;-1.502;2023-07-31T12:07:01;8.48;;;2.60;;
23866;SDS011;12114;53.404;-1.502;2023-07-31T12:09:54;7.22;;;2.92;;
23866;SDS011;12114;53.404;-1.502;2023-07-31T12:12:38;6.93;;;3.03;;
23866;SDS011;12114;53.404;-1.502;2023-07-31T12:15:22;7.15;;;2.67;;
23866;SDS011;12114;53.404;-1.502;2023-07-31T12:23:39;7.60;;;3.33;;
23866;SDS011;12114;53.404;-1.502;2023-07-31T12:26:33;10.52;;;2.85;;
23866;SDS011;12114;53.404;-1.502;2023-07-31T12:29:17;9.60;;;2.90;;
23866;SDS011;12114;53.404;-1.502;2023-07-31T12:32:01;6.72;;;2.40;;
23866;SDS011;12114;53.404;-1.502;2023-07-31T12:34:45;10.18;;;2.60;;
23866;SDS011;12114;53.404;-1.502;2023-07-31T12:37:29;7.75;;;2.60;;
23866;SDS011;12114;53.404;-1.502;2023-07-31T12:40:13;7.40;;;2.80;;
23866;SDS011;12114;53.404;-1.502;2023-07-31T12:42:57;5.53;;;2.53;;
23866;SDS011;12114;53.404;-1.502;2023-07-31T12:45:41;5.90;;;2.60;;
23866;SDS011;12114;53.404;-1.502;2023-07-31T12:48:25;5.03;;;2.20;;
23866;SDS011;12114;53.404;-1.502;2023-07-31T12:51:09;8.85;;;3.05;;
23866;SDS011;12114;53.404;-1.502;2023-07-31T12:53:53;9.50;;;2.90;;
23866;SDS011;12114;53.404;-1.502;2023-07-31T12:56:37;5.70;;;2.25;;
23866;SDS011;12114;53.404;-1.502;2023-07-31T12:59:21;6.68;;;2.67;;
23866;SDS011;12114;53.404;-1.502;2023-07-31T13:02:05;9.60;;;2.72;;
23866;SDS011;12114;53.404;-1.502;2023-07-31T13:04:49;9.38;;;2.83;;
23866;SDS011;12114;53.404;-1.502;2023-07-31T13:07:33;7.05;;;2.47;;
23866;SDS011;12114;53.404;-1.502;2023-07-31T13:10:17;7.97;;;2.65;;
23866;SDS011;12114;53.404;-1.502;2023-07-31T13:13:01;6.57;;;3.03;;
23866;SDS011;12114;53.404;-1.502;2023-07-31T13:15:45;9.30;;;2.80;;
23866;SDS011;12114;53.404;-1.502;2023-07-31T13:18:29;5.03;;;2.60;;
23866;SDS011;12114;53.404;-1.502;2023-07-31T13:21:13;8.88;;;3.05;;
23866;SDS011;12114;53.404;-1.502;2023-07-31T13:23:57;5.95;;;2.35;;
23866;SDS011;12114;53.404;-1.502;2023-07-31T13:26:43;11.27;;;3.20;;
23866;SDS011;12114;53.404;-1.502;2023-07-31T13:29:27;9.27;;;2.78;;
23866;SDS011;12114;53.404;-1.502;2023-07-31T13:32:11;11.02;;;3.00;;
23866;SDS011;12114;53.404;-1.502;2023-07-31T13:34:55;10.57;;;3.22;;
23866;SDS011;12114;53.404;-1.502;2023-07-31T13:37:39;11.93;;;3.30;;
23866;SDS011;12114;53.404;-1.502;2023-07-31T13:40:23;7.20;;;3.00;;
23866;SDS011;12114;53.404;-1.502;2023-07-31T13:43:07;8.20;;;3.15;;
23866;SDS011;12114;53.404;-1.502;2023-07-31T13:45:51;7.68;;;2.92;;
23866;SDS011;12114;53.404;-1.502;2023-07-31T13:48:35;9.20;;;3.35;;
23866;SDS011;12114;53.404;-1.502;2023-07-31T13:51:19;12.27;;;2.92;;
23866;SDS011;12114;53.404;-1.502;2023-07-31T13:54:03;13.10;;;3.40;;
23866;SDS011;12114;53.404;-1.502;2023-07-31T13:56:47;11.10;;;3.20;;
23866;SDS011;12114;53.404;-1.502;2023-07-31T13:59:31;8.02;;;3.05;;
23866;SDS011;12114;53.404;-1.502;2023-07-31T14:02:15;5.40;;;2.80;;
23866;SDS011;12114;53.404;-1.502;2023-07-31T14:04:59;8.35;;;2.92;;
23866;SDS011;12114;53.404;-1.502;2023-07-31T14:07:43;5.25;;;2.88;;
23866;SDS011;12114;53.404;-1.502;2023-07-31T14:10:27;8.07;;;3.10;;
23866;SDS011;12114;53.404;-1.502;2023-07-31T14:13:12;6.60;;;2.55;;
23866;SDS011;12114;53.404;-1.502;2023-07-31T14:15:56;10.77;;;3.05;;
23866;SDS011;12114;53.404;-1.502;2023-07-31T14:18:40;7.13;;;2.63;;
23866;SDS011;12114;53.404;-1.502;2023-07-31T14:21:24;4.15;;;2.40;;
23866;SDS011;12114;53.404;-1.502;2023-07-31T14:24:08;8.70;;;2.55;;
23866;SDS011;12114;53.404;-1.502;2023-07-31T14:26:52;5.75;;;2.20;;
23866;SDS011;12114;53.404;-1.502;2023-07-31T14:29:36;5.80;;;2.35;;
23866;SDS011;12114;53.404;-1.502;2023-07-31T14:32:21;6.05;;;2.55;;
23866;SDS011;12114;53.404;-1.502;2023-07-31T14:35:05;6.68;;;2.20;;
23866;SDS011;12114;53.404;-1.502;2023-07-31T14:37:49;8.73;;;2.60;;
23866;SDS011;12114;53.404;-1.502;2023-07-31T14:40:33;6.72;;;1.98;;
23866;SDS011;12114;53.404;-1.502;2023-07-31T14:43:17;9.75;;;2.22;;
23866;SDS011;12114;53.404;-1.502;2023-07-31T14:46:01;9.30;;;2.30;;
23866;SDS011;12114;53.404;-1.502;2023-07-31T14:48:45;5.68;;;2.40;;
23866;SDS011;12114;53.404;-1.502;2023-07-31T14:51:29;4.88;;;2.20;;
23866;SDS011;12114;53.404;-1.502;2023-07-31T14:54:13;5.47;;;1.77;;
23866;SDS011;12114;53.404;-1.502;2023-07-31T14:56:56;6.05;;;2.17;;
23866;SDS011;12114;53.404;-1.502;2023-07-31T14:59:40;7.22;;;1.90;;
23866;SDS011;12114;53.404;-1.502;2023-07-31T15:02:25;6.75;;;2.05;;
23866;SDS011;12114;53.404;-1.502;2023-07-31T15:05:09;6.38;;;2.15;;
23866;SDS011;12114;53.404;-1.502;2023-07-31T15:07:53;5.63;;;2.13;;
23866;SDS011;12114;53.404;-1.502;2023-07-31T15:10:37;5.65;;;2.30;;
23866;SDS011;12114;53.404;-1.502;2023-07-31T15:13:21;5.88;;;2.65;;
23866;SDS011;12114;53.404;-1.502;2023-07-31T15:16:05;5.22;;;1.90;;
23866;SDS011;12114;53.404;-1.502;2023-07-31T15:18:49;7.28;;;2.67;;
23866;SDS011;12114;53.404;-1.502;2023-07-31T15:21:33;8.63;;;2.20;;
23866;SDS011;12114;53.404;-1.502;2023-07-31T15:24:17;8.18;;;2.20;;
23866;SDS011;12114;53.404;-1.502;2023-07-31T15:27:01;6.80;;;1.95;;
23866;SDS011;12114;53.404;-1.502;2023-07-31T15:29:46;3.10;;;1.70;;
23866;SDS011;12114;53.404;-1.502;2023-07-31T15:32:30;4.22;;;1.70;;
23866;SDS011;12114;53.404;-1.502;2023-07-31T15:35:14;4.53;;;2.10;;
23866;SDS011;12114;53.404;-1.502;2023-07-31T15:37:58;2.83;;;1.45;;
23866;SDS011;12114;53.404;-1.502;2023-07-31T15:40:42;2.40;;;0.95;;
23866;SDS011;12114;53.404;-1.502;2023-07-31T15:43:26;1.88;;;0.80;;
23866;SDS011;12114;53.404;-1.502;2023-07-31T15:46:10;0.65;;;0.40;;
23866;SDS011;12114;53.404;-1.502;2023-07-31T15:48:54;0.65;;;0.28;;
23866;SDS011;12114;53.404;-1.502;2023-07-31T15:51:38;2.03;;;0.30;;
23866;SDS011;12114;53.404;-1.502;2023-07-31T15:54:22;0.30;;;0.20;;
23866;SDS011;12114;53.404;-1.502;2023-07-31T15:57:06;0.25;;;0.20;;
23866;SDS011;12114;53.404;-1.502;2023-07-31T15:59:50;1.55;;;0.40;;
23866;SDS011;12114;53.404;-1.502;2023-07-31T16:02:34;1.08;;;0.38;;
23866;SDS011;12114;53.404;-1.502;2023-07-31T16:05:18;1.75;;;0.50;;
23866;SDS011;12114;53.404;-1.502;2023-07-31T16:08:02;0.68;;;0.40;;
23866;SDS011;12114;53.404;-1.502;2023-07-31T16:10:46;1.58;;;0.60;;
23866;SDS011;12114;53.404;-1.502;2023-07-31T16:13:30;0.55;;;0.40;;
23866;SDS011;12114;53.404;-1.502;2023-07-31T16:16:14;1.23;;;0.43;;
23866;SDS011;12114;53.404;-1.502;2023-07-31T16:18:59;1.85;;;0.45;;
23866;SDS011;12114;53.404;-1.502;2023-07-31T16:21:43;1.48;;;0.60;;
23866;SDS011;12114;53.404;-1.502;2023-07-31T16:24:27;1.98;;;0.60;;
23866;SDS011;12114;53.404;-1.502;2023-07-31T16:27:11;3.10;;;0.70;;
23866;SDS011;12114;53.404;-1.502;2023-07-31T16:29:55;1.50;;;0.52;;
23866;SDS011;12114;53.404;-1.502;2023-07-31T16:32:40;1.30;;;0.50;;
23866;SDS011;12114;53.404;-1.502;2023-07-31T16:35:24;2.15;;;0.70;;